sensor_id;sensor_type;location;lat;lon;timestamp;temperature;humidity
33955;DHT22;20233;50.804;7.126;2022-11-25T00:00:33;7.10;99.90
33955;DHT22;20233;50.804;7.126;2022-11-25T00:02:58;7.10;99.90
33955;DHT22;20233;50.804;7.126;2022-11-25T00:05:25;7.10;99.90
33955;DHT22;20233;50.804;7.126;2022-11-25T00:07:52;7.10;99.90
33955;DHT22;20233;50.804;7.126;2022-11-25T00:10:18;7.10;99.90
33955;DHT22;20233;50.804;7.126;2022-11-25T00:12:43;7.10;99.90
33955;DHT22;20233;50.804;7.126;2022-11-25T00:15:09;7.10;99.90
33955;DHT22;20233;50.804;7.126;2022-11-25T00:17:35;7.10;99.90
33955;DHT22;20233;50.804;7.126;2022-11-25T00:20:01;7.00;99.90
33955;DHT22;20233;50.804;7.126;2022-11-25T00:22:30;7.00;99.90
33955;DHT22;20233;50.804;7.126;2022-11-25T00:24:55;7.00;99.90
33955;DHT22;20233;50.804;7.126;2022-11-25T00:27:21;7.00;99.90
33955;DHT22;20233;50.804;7.126;2022-11-25T00:29:46;6.90;99.90
33955;DHT22;20233;50.804;7.126;2022-11-25T00:32:12;6.90;99.90
33955;DHT22;20233;50.804;7.126;2022-11-25T00:34:38;6.90;99.90
33955;DHT22;20233;50.804;7.126;2022-11-25T00:37:03;6.90;99.90
33955;DHT22;20233;50.804;7.126;2022-11-25T00:39:29;6.90;99.90
33955;DHT22;20233;50.804;7.126;2022-11-25T00:41:54;6.90;99.90
33955;DHT22;20233;50.804;7.126;2022-11-25T00:44:38;6.80;99.90
33955;DHT22;20233;50.804;7.126;2022-11-25T00:47:14;6.80;99.90
33955;DHT22;20233;50.804;7.126;2022-11-25T00:49:42;6.80;99.90
33955;DHT22;20233;50.804;7.126;2022-11-25T00:52:09;6.80;99.90
33955;DHT22;20233;50.804;7.126;2022-11-25T00:54:37;6.80;99.90
33955;DHT22;20233;50.804;7.126;2022-11-25T00:57:02;6.90;99.90
33955;DHT22;20233;50.804;7.126;2022-11-25T00:59:28;6.80;99.90
33955;DHT22;20233;50.804;7.126;2022-11-25T01:01:53;6.80;99.90
33955;DHT22;20233;50.804;7.126;2022-11-25T01:04:20;6.90;99.90
33955;DHT22;20233;50.804;7.126;2022-11-25T01:06:45;6.80;99.90
33955;DHT22;20233;50.804;7.126;2022-11-25T01:09:12;6.80;99.90
33955;DHT22;20233;50.804;7.126;2022-11-25T01:11:38;6.90;99.90
33955;DHT22;20233;50.804;7.126;2022-11-25T01:14:04;7.00;99.90
33955;DHT22;20233;50.804;7.126;2022-11-25T01:16:30;7.00;99.90
33955;DHT22;20233;50.804;7.126;2022-11-25T01:18:58;6.90;99.90
33955;DHT22;20233;50.804;7.126;2022-11-25T01:21:26;7.00;99.90
33955;DHT22;20233;50.804;7.126;2022-11-25T01:23:52;7.00;99.90
33955;DHT22;20233;50.804;7.126;2022-11-25T01:26:20;6.90;99.90
33955;DHT22;20233;50.804;7.126;2022-11-25T01:28:47;6.90;99.90
33955;DHT22;20233;50.804;7.126;2022-11-25T01:31:18;7.00;99.90
33955;DHT22;20233;50.804;7.126;2022-11-25T01:33:45;7.00;99.90
33955;DHT22;20233;50.804;7.126;2022-11-25T01:36:16;7.10;99.90
33955;DHT22;20233;50.804;7.126;2022-11-25T01:38:43;7.00;99.90
33955;DHT22;20233;50.804;7.126;2022-11-25T01:41:12;7.10;99.90
33955;DHT22;20233;50.804;7.126;2022-11-25T01:43:38;7.10;99.90
33955;DHT22;20233;50.804;7.126;2022-11-25T01:46:24;7.10;99.90
33955;DHT22;20233;50.804;7.126;2022-11-25T01:48:56;7.20;99.90
33955;DHT22;20233;50.804;7.126;2022-11-25T01:51:34;7.30;99.90
33955;DHT22;20233;50.804;7.126;2022-11-25T01:54:04;7.30;99.90
33955;DHT22;20233;50.804;7.126;2022-11-25T01:56:35;7.40;99.90
33955;DHT22;20233;50.804;7.126;2022-11-25T01:59:03;7.40;99.90
33955;DHT22;20233;50.804;7.126;2022-11-25T02:01:30;7.40;99.90
33955;DHT22;20233;50.804;7.126;2022-11-25T02:03:57;7.50;99.90
33955;DHT22;20233;50.804;7.126;2022-11-25T02:06:26;7.50;99.90
33955;DHT22;20233;50.804;7.126;2022-11-25T02:08:57;7.50;99.90
33955;DHT22;20233;50.804;7.126;2022-11-25T02:11:26;7.60;99.90
33955;DHT22;20233;50.804;7.126;2022-11-25T02:13:52;7.60;99.90
33955;DHT22;20233;50.804;7.126;2022-11-25T02:16:18;7.70;99.90
33955;DHT22;20233;50.804;7.126;2022-11-25T02:18:44;7.70;99.90
33955;DHT22;20233;50.804;7.126;2022-11-25T02:21:10;7.70;99.90
33955;DHT22;20233;50.804;7.126;2022-11-25T02:26:08;7.80;99.90
33955;DHT22;20233;50.804;7.126;2022-11-25T02:28:33;7.90;99.90
33955;DHT22;20233;50.804;7.126;2022-11-25T02:30:59;7.90;99.90
33955;DHT22;20233;50.804;7.126;2022-11-25T02:33:26;7.90;99.90
33955;DHT22;20233;50.804;7.126;2022-11-25T02:35:55;8.00;99.90
33955;DHT22;20233;50.804;7.126;2022-11-25T02:38:25;7.90;99.90
33955;DHT22;20233;50.804;7.126;2022-11-25T02:41:15;8.00;99.90
33955;DHT22;20233;50.804;7.126;2022-11-25T02:43:41;8.00;99.90
33955;DHT22;20233;50.804;7.126;2022-11-25T02:46:08;8.00;99.90
33955;DHT22;20233;50.804;7.126;2022-11-25T02:48:36;8.10;99.90
33955;DHT22;20233;50.804;7.126;2022-11-25T02:51:03;8.10;99.90
33955;DHT22;20233;50.804;7.126;2022-11-25T02:53:28;8.20;99.90
33955;DHT22;20233;50.804;7.126;2022-11-25T02:55:54;8.20;99.90
33955;DHT22;20233;50.804;7.126;2022-11-25T02:58:20;8.30;99.90
33955;DHT22;20233;50.804;7.126;2022-11-25T03:00:46;8.30;99.90
33955;DHT22;20233;50.804;7.126;2022-11-25T03:03:12;8.30;99.90
33955;DHT22;20233;50.804;7.126;2022-11-25T03:05:38;8.30;99.90
33955;DHT22;20233;50.804;7.126;2022-11-25T03:08:04;8.40;99.90
33955;DHT22;20233;50.804;7.126;2022-11-25T03:10:30;8.40;99.90
33955;DHT22;20233;50.804;7.126;2022-11-25T03:12:56;8.40;99.90
33955;DHT22;20233;50.804;7.126;2022-11-25T03:15:22;8.40;99.90
33955;DHT22;20233;50.804;7.126;2022-11-25T03:17:49;8.50;99.90
33955;DHT22;20233;50.804;7.126;2022-11-25T03:20:15;8.50;99.90
33955;DHT22;20233;50.804;7.126;2022-11-25T03:22:41;8.50;99.90
33955;DHT22;20233;50.804;7.126;2022-11-25T03:25:08;8.60;99.90
33955;DHT22;20233;50.804;7.126;2022-11-25T03:27:34;8.60;99.90
33955;DHT22;20233;50.804;7.126;2022-11-25T03:30:00;8.60;99.90
33955;DHT22;20233;50.804;7.126;2022-11-25T03:32:26;8.60;99.90
33955;DHT22;20233;50.804;7.126;2022-11-25T03:34:51;8.60;99.90
33955;DHT22;20233;50.804;7.126;2022-11-25T03:37:17;8.70;99.90
33955;DHT22;20233;50.804;7.126;2022-11-25T03:39:44;8.70;99.90
33955;DHT22;20233;50.804;7.126;2022-11-25T03:42:09;8.70;99.90
33955;DHT22;20233;50.804;7.126;2022-11-25T03:44:35;8.70;99.90
33955;DHT22;20233;50.804;7.126;2022-11-25T03:47:01;8.70;99.90
33955;DHT22;20233;50.804;7.126;2022-11-25T03:49:26;8.80;99.90
33955;DHT22;20233;50.804;7.126;2022-11-25T03:51:52;8.80;99.90
33955;DHT22;20233;50.804;7.126;2022-11-25T03:54:18;8.80;99.90
33955;DHT22;20233;50.804;7.126;2022-11-25T03:56:43;8.90;99.90
33955;DHT22;20233;50.804;7.126;2022-11-25T03:59:09;8.80;99.90
33955;DHT22;20233;50.804;7.126;2022-11-25T04:01:34;8.90;99.90
33955;DHT22;20233;50.804;7.126;2022-11-25T04:04:00;8.90;99.90
33955;DHT22;20233;50.804;7.126;2022-11-25T04:06:26;8.90;99.90
33955;DHT22;20233;50.804;7.126;2022-11-25T04:08:51;8.90;99.90
33955;DHT22;20233;50.804;7.126;2022-11-25T04:11:17;8.90;99.90
33955;DHT22;20233;50.804;7.126;2022-11-25T04:13:42;8.90;99.90
33955;DHT22;20233;50.804;7.126;2022-11-25T04:16:25;8.90;99.90
33955;DHT22;20233;50.804;7.126;2022-11-25T04:18:50;8.90;99.90
33955;DHT22;20233;50.804;7.126;2022-11-25T04:21:16;8.90;99.90
33955;DHT22;20233;50.804;7.126;2022-11-25T04:23:41;8.90;99.90
33955;DHT22;20233;50.804;7.126;2022-11-25T04:26:07;8.80;99.90
33955;DHT22;20233;50.804;7.126;2022-11-25T04:28:33;8.90;99.90
33955;DHT22;20233;50.804;7.126;2022-11-25T04:30:58;8.90;99.90
33955;DHT22;20233;50.804;7.126;2022-11-25T04:33:24;8.90;99.90
33955;DHT22;20233;50.804;7.126;2022-11-25T04:35:49;8.90;99.90
33955;DHT22;20233;50.804;7.126;2022-11-25T04:38:15;8.90;99.90
33955;DHT22;20233;50.804;7.126;2022-11-25T04:40:40;8.90;99.90
33955;DHT22;20233;50.804;7.126;2022-11-25T04:43:06;8.90;99.90
33955;DHT22;20233;50.804;7.126;2022-11-25T04:45:31;8.90;99.90
33955;DHT22;20233;50.804;7.126;2022-11-25T04:47:57;9.00;99.90
33955;DHT22;20233;50.804;7.126;2022-11-25T04:50:23;9.00;99.90
33955;DHT22;20233;50.804;7.126;2022-11-25T04:52:49;8.90;99.90
33955;DHT22;20233;50.804;7.126;2022-11-25T04:55:15;9.00;99.90
33955;DHT22;20233;50.804;7.126;2022-11-25T04:57:40;9.00;99.90
33955;DHT22;20233;50.804;7.126;2022-11-25T05:00:07;9.00;99.90
33955;DHT22;20233;50.804;7.126;2022-11-25T05:02:33;9.00;99.90
33955;DHT22;20233;50.804;7.126;2022-11-25T05:04:59;9.00;99.90
33955;DHT22;20233;50.804;7.126;2022-11-25T05:07:26;9.00;99.90
33955;DHT22;20233;50.804;7.126;2022-11-25T05:09:53;9.00;99.90
33955;DHT22;20233;50.804;7.126;2022-11-25T05:12:21;9.00;99.90
33955;DHT22;20233;50.804;7.126;2022-11-25T05:14:48;9.10;99.90
33955;DHT22;20233;50.804;7.126;2022-11-25T05:17:16;9.00;99.90
33955;DHT22;20233;50.804;7.126;2022-11-25T05:19:43;9.00;99.90
33955;DHT22;20233;50.804;7.126;2022-11-25T05:22:13;9.00;99.90
33955;DHT22;20233;50.804;7.126;2022-11-25T05:24:38;9.00;99.90
33955;DHT22;20233;50.804;7.126;2022-11-25T05:27:04;9.00;99.90
33955;DHT22;20233;50.804;7.126;2022-11-25T05:29:30;9.00;99.90
33955;DHT22;20233;50.804;7.126;2022-11-25T05:31:55;8.90;99.90
33955;DHT22;20233;50.804;7.126;2022-11-25T05:34:21;9.00;99.90
33955;DHT22;20233;50.804;7.126;2022-11-25T05:36:47;9.00;99.90
33955;DHT22;20233;50.804;7.126;2022-11-25T05:39:12;9.00;99.90
33955;DHT22;20233;50.804;7.126;2022-11-25T05:41:38;9.00;99.90
33955;DHT22;20233;50.804;7.126;2022-11-25T05:44:04;9.00;99.90
33955;DHT22;20233;50.804;7.126;2022-11-25T05:46:30;9.00;99.90
33955;DHT22;20233;50.804;7.126;2022-11-25T05:48:56;9.00;99.90
33955;DHT22;20233;50.804;7.126;2022-11-25T05:51:23;9.00;99.90
33955;DHT22;20233;50.804;7.126;2022-11-25T05:53:49;8.90;99.90
33955;DHT22;20233;50.804;7.126;2022-11-25T05:56:15;8.90;99.90
33955;DHT22;20233;50.804;7.126;2022-11-25T05:58:41;8.90;99.90
33955;DHT22;20233;50.804;7.126;2022-11-25T06:01:08;9.00;99.90
33955;DHT22;20233;50.804;7.126;2022-11-25T06:03:36;9.00;99.90
33955;DHT22;20233;50.804;7.126;2022-11-25T06:06:02;9.00;99.90
33955;DHT22;20233;50.804;7.126;2022-11-25T06:08:27;9.00;99.90
33955;DHT22;20233;50.804;7.126;2022-11-25T06:10:54;9.00;99.90
33955;DHT22;20233;50.804;7.126;2022-11-25T06:13:20;9.00;99.90
33955;DHT22;20233;50.804;7.126;2022-11-25T06:15:46;9.00;99.90
33955;DHT22;20233;50.804;7.126;2022-11-25T06:18:14;9.00;99.90
33955;DHT22;20233;50.804;7.126;2022-11-25T06:20:40;9.00;99.90
33955;DHT22;20233;50.804;7.126;2022-11-25T06:23:06;9.00;99.90
33955;DHT22;20233;50.804;7.126;2022-11-25T06:25:32;8.90;99.90
33955;DHT22;20233;50.804;7.126;2022-11-25T06:27:58;9.00;99.90
33955;DHT22;20233;50.804;7.126;2022-11-25T06:30:24;8.90;99.90
33955;DHT22;20233;50.804;7.126;2022-11-25T06:32:50;9.00;99.90
33955;DHT22;20233;50.804;7.126;2022-11-25T06:35:18;9.00;99.90
33955;DHT22;20233;50.804;7.126;2022-11-25T06:37:43;9.00;99.90
33955;DHT22;20233;50.804;7.126;2022-11-25T06:40:09;9.10;99.90
33955;DHT22;20233;50.804;7.126;2022-11-25T06:42:36;9.00;99.90
33955;DHT22;20233;50.804;7.126;2022-11-25T06:45:03;9.00;99.90
33955;DHT22;20233;50.804;7.126;2022-11-25T06:47:28;9.00;99.90
33955;DHT22;20233;50.804;7.126;2022-11-25T06:49:54;9.00;99.90
33955;DHT22;20233;50.804;7.126;2022-11-25T06:52:20;9.00;99.90
33955;DHT22;20233;50.804;7.126;2022-11-25T06:54:45;9.00;99.90
33955;DHT22;20233;50.804;7.126;2022-11-25T06:57:11;9.00;99.90
33955;DHT22;20233;50.804;7.126;2022-11-25T06:59:40;9.10;99.90
33955;DHT22;20233;50.804;7.126;2022-11-25T07:02:08;9.10;99.90
33955;DHT22;20233;50.804;7.126;2022-11-25T07:04:34;9.10;99.90
33955;DHT22;20233;50.804;7.126;2022-11-25T07:07:00;9.10;99.90
33955;DHT22;20233;50.804;7.126;2022-11-25T07:09:26;9.10;99.90
33955;DHT22;20233;50.804;7.126;2022-11-25T07:11:52;9.10;99.90
33955;DHT22;20233;50.804;7.126;2022-11-25T07:14:17;9.10;99.90
33955;DHT22;20233;50.804;7.126;2022-11-25T07:16:44;9.10;99.90
33955;DHT22;20233;50.804;7.126;2022-11-25T07:19:15;9.10;99.90
33955;DHT22;20233;50.804;7.126;2022-11-25T07:21:41;9.10;99.90
33955;DHT22;20233;50.804;7.126;2022-11-25T07:24:09;9.10;99.90
33955;DHT22;20233;50.804;7.126;2022-11-25T07:26:37;9.10;99.90
33955;DHT22;20233;50.804;7.126;2022-11-25T07:29:05;9.00;99.90
33955;DHT22;20233;50.804;7.126;2022-11-25T07:31:34;9.10;99.90
33955;DHT22;20233;50.804;7.126;2022-11-25T07:34:12;9.10;99.90
33955;DHT22;20233;50.804;7.126;2022-11-25T07:36:39;9.10;99.90
33955;DHT22;20233;50.804;7.126;2022-11-25T07:39:09;9.00;99.90
33955;DHT22;20233;50.804;7.126;2022-11-25T07:41:36;9.00;99.90
33955;DHT22;20233;50.804;7.126;2022-11-25T07:44:03;9.00;99.90
33955;DHT22;20233;50.804;7.126;2022-11-25T07:46:49;8.90;99.90
33955;DHT22;20233;50.804;7.126;2022-11-25T07:49:17;8.90;99.90
33955;DHT22;20233;50.804;7.126;2022-11-25T07:51:57;8.80;99.90
33955;DHT22;20233;50.804;7.126;2022-11-25T07:54:28;8.80;99.90
33955;DHT22;20233;50.804;7.126;2022-11-25T07:56:54;8.80;99.90
33955;DHT22;20233;50.804;7.126;2022-11-25T07:59:21;8.80;99.90
33955;DHT22;20233;50.804;7.126;2022-11-25T08:01:51;8.80;99.90
33955;DHT22;20233;50.804;7.126;2022-11-25T08:04:17;8.80;99.90
33955;DHT22;20233;50.804;7.126;2022-11-25T08:06:44;8.80;99.90
33955;DHT22;20233;50.804;7.126;2022-11-25T08:09:13;8.80;99.90
33955;DHT22;20233;50.804;7.126;2022-11-25T08:11:40;8.90;99.90
33955;DHT22;20233;50.804;7.126;2022-11-25T08:14:06;8.80;99.90
33955;DHT22;20233;50.804;7.126;2022-11-25T08:16:32;8.90;99.90
33955;DHT22;20233;50.804;7.126;2022-11-25T08:18:59;8.90;99.90
33955;DHT22;20233;50.804;7.126;2022-11-25T08:21:26;9.00;99.90
33955;DHT22;20233;50.804;7.126;2022-11-25T08:23:52;9.00;99.90
33955;DHT22;20233;50.804;7.126;2022-11-25T08:26:26;9.00;99.90
33955;DHT22;20233;50.804;7.126;2022-11-25T08:28:58;8.90;99.90
33955;DHT22;20233;50.804;7.126;2022-11-25T08:31:27;9.00;99.90
33955;DHT22;20233;50.804;7.126;2022-11-25T08:33:54;8.90;99.90
33955;DHT22;20233;50.804;7.126;2022-11-25T08:36:22;8.90;99.90
33955;DHT22;20233;50.804;7.126;2022-11-25T08:38:51;8.90;99.90
33955;DHT22;20233;50.804;7.126;2022-11-25T08:41:26;8.90;99.90
33955;DHT22;20233;50.804;7.126;2022-11-25T08:43:53;9.00;99.90
33955;DHT22;20233;50.804;7.126;2022-11-25T08:46:22;9.00;99.90
33955;DHT22;20233;50.804;7.126;2022-11-25T08:48:48;9.00;99.90
33955;DHT22;20233;50.804;7.126;2022-11-25T08:51:17;9.00;99.90
33955;DHT22;20233;50.804;7.126;2022-11-25T08:53:44;9.00;99.90
33955;DHT22;20233;50.804;7.126;2022-11-25T08:56:10;9.10;99.90
33955;DHT22;20233;50.804;7.126;2022-11-25T08:58:36;9.10;99.90
33955;DHT22;20233;50.804;7.126;2022-11-25T09:01:04;9.20;99.90
33955;DHT22;20233;50.804;7.126;2022-11-25T09:03:41;9.20;99.90
33955;DHT22;20233;50.804;7.126;2022-11-25T09:06:08;9.20;99.90
33955;DHT22;20233;50.804;7.126;2022-11-25T09:08:35;9.30;99.90
33955;DHT22;20233;50.804;7.126;2022-11-25T09:11:02;9.20;99.90
33955;DHT22;20233;50.804;7.126;2022-11-25T09:13:28;9.30;99.90
33955;DHT22;20233;50.804;7.126;2022-11-25T09:15:53;9.30;99.90
33955;DHT22;20233;50.804;7.126;2022-11-25T09:18:20;9.40;99.90
33955;DHT22;20233;50.804;7.126;2022-11-25T09:20:50;9.40;99.90
33955;DHT22;20233;50.804;7.126;2022-11-25T09:23:16;9.50;99.90
33955;DHT22;20233;50.804;7.126;2022-11-25T09:25:41;9.60;99.90
33955;DHT22;20233;50.804;7.126;2022-11-25T09:28:08;9.60;99.90
33955;DHT22;20233;50.804;7.126;2022-11-25T09:30:35;9.60;99.90
33955;DHT22;20233;50.804;7.126;2022-11-25T09:33:01;9.70;99.90
33955;DHT22;20233;50.804;7.126;2022-11-25T09:35:27;9.60;99.90
33955;DHT22;20233;50.804;7.126;2022-11-25T09:37:52;9.70;99.90
33955;DHT22;20233;50.804;7.126;2022-11-25T09:40:40;9.70;99.90
33955;DHT22;20233;50.804;7.126;2022-11-25T09:46:30;9.90;99.90
33955;DHT22;20233;50.804;7.126;2022-11-25T09:52:01;10.00;99.90
33955;DHT22;20233;50.804;7.126;2022-11-25T09:54:37;10.10;99.90
33955;DHT22;20233;50.804;7.126;2022-11-25T09:57:26;10.20;99.90
33955;DHT22;20233;50.804;7.126;2022-11-25T10:00:11;10.20;99.90
33955;DHT22;20233;50.804;7.126;2022-11-25T10:02:42;10.20;99.90
33955;DHT22;20233;50.804;7.126;2022-11-25T10:05:19;10.30;99.90
33955;DHT22;20233;50.804;7.126;2022-11-25T10:07:49;10.40;99.90
33955;DHT22;20233;50.804;7.126;2022-11-25T10:10:25;10.40;99.90
33955;DHT22;20233;50.804;7.126;2022-11-25T10:12:53;10.40;99.90
33955;DHT22;20233;50.804;7.126;2022-11-25T10:15:26;10.50;99.90
33955;DHT22;20233;50.804;7.126;2022-11-25T10:18:02;10.50;99.90
33955;DHT22;20233;50.804;7.126;2022-11-25T10:20:32;10.60;99.90
33955;DHT22;20233;50.804;7.126;2022-11-25T10:23:04;10.70;99.90
33955;DHT22;20233;50.804;7.126;2022-11-25T10:25:37;10.70;99.90
33955;DHT22;20233;50.804;7.126;2022-11-25T10:30:39;10.80;99.90
33955;DHT22;20233;50.804;7.126;2022-11-25T10:33:23;10.90;99.90
33955;DHT22;20233;50.804;7.126;2022-11-25T10:41:37;11.10;99.90
33955;DHT22;20233;50.804;7.126;2022-11-25T10:44:14;11.20;99.90
33955;DHT22;20233;50.804;7.126;2022-11-25T10:46:52;11.20;99.90
33955;DHT22;20233;50.804;7.126;2022-11-25T10:49:25;11.20;99.90
33955;DHT22;20233;50.804;7.126;2022-11-25T10:51:52;11.40;99.90
33955;DHT22;20233;50.804;7.126;2022-11-25T10:54:23;11.50;99.90
33955;DHT22;20233;50.804;7.126;2022-11-25T10:56:58;11.60;99.90
33955;DHT22;20233;50.804;7.126;2022-11-25T10:59:33;11.70;99.90
33955;DHT22;20233;50.804;7.126;2022-11-25T11:02:17;11.80;99.90
33955;DHT22;20233;50.804;7.126;2022-11-25T11:05:02;11.90;99.90
33955;DHT22;20233;50.804;7.126;2022-11-25T11:07:33;11.80;99.90
33955;DHT22;20233;50.804;7.126;2022-11-25T11:10:20;11.80;99.90
33955;DHT22;20233;50.804;7.126;2022-11-25T11:15:19;11.70;99.90
33955;DHT22;20233;50.804;7.126;2022-11-25T11:17:45;11.80;99.90
33955;DHT22;20233;50.804;7.126;2022-11-25T11:20:28;11.80;99.90
33955;DHT22;20233;50.804;7.126;2022-11-25T11:22:59;11.90;99.90
33955;DHT22;20233;50.804;7.126;2022-11-25T11:25:28;11.90;99.90
33955;DHT22;20233;50.804;7.126;2022-11-25T11:27:55;11.90;99.90
33955;DHT22;20233;50.804;7.126;2022-11-25T11:30:23;11.90;99.90
33955;DHT22;20233;50.804;7.126;2022-11-25T11:39:39;12.00;99.90
33955;DHT22;20233;50.804;7.126;2022-11-25T11:47:40;12.00;99.90
33955;DHT22;20233;50.804;7.126;2022-11-25T11:50:22;12.00;99.90
33955;DHT22;20233;50.804;7.126;2022-11-25T11:52:56;12.00;99.90
33955;DHT22;20233;50.804;7.126;2022-11-25T11:55:47;12.00;99.90
33955;DHT22;20233;50.804;7.126;2022-11-25T11:58:38;12.00;99.90
33955;DHT22;20233;50.804;7.126;2022-11-25T12:06:41;12.00;99.90
33955;DHT22;20233;50.804;7.126;2022-11-25T12:09:14;12.00;99.90
33955;DHT22;20233;50.804;7.126;2022-11-25T12:11:47;12.10;99.90
33955;DHT22;20233;50.804;7.126;2022-11-25T12:14:31;12.10;99.90
33955;DHT22;20233;50.804;7.126;2022-11-25T12:17:00;12.10;99.90
33955;DHT22;20233;50.804;7.126;2022-11-25T12:19:48;12.10;99.90
33955;DHT22;20233;50.804;7.126;2022-11-25T12:22:24;12.10;99.90
33955;DHT22;20233;50.804;7.126;2022-11-25T12:25:15;12.10;99.90
33955;DHT22;20233;50.804;7.126;2022-11-25T12:30:12;12.10;99.90
33955;DHT22;20233;50.804;7.126;2022-11-25T12:32:50;12.10;99.90
33955;DHT22;20233;50.804;7.126;2022-11-25T12:37:48;12.00;99.90
33955;DHT22;20233;50.804;7.126;2022-11-25T12:40:55;12.00;99.90
33955;DHT22;20233;50.804;7.126;2022-11-25T12:45:57;11.90;99.90
33955;DHT22;20233;50.804;7.126;2022-11-25T12:48:25;11.90;99.90
33955;DHT22;20233;50.804;7.126;2022-11-25T12:51:07;12.00;99.90
33955;DHT22;20233;50.804;7.126;2022-11-25T12:56:52;12.00;99.90
33955;DHT22;20233;50.804;7.126;2022-11-25T13:02:43;11.80;99.90
33955;DHT22;20233;50.804;7.126;2022-11-25T13:08:44;11.90;99.90
33955;DHT22;20233;50.804;7.126;2022-11-25T13:16:20;12.10;99.90
33955;DHT22;20233;50.804;7.126;2022-11-25T13:18:46;12.00;99.90
33955;DHT22;20233;50.804;7.126;2022-11-25T13:21:14;12.00;99.90
33955;DHT22;20233;50.804;7.126;2022-11-25T13:23:54;11.90;99.90
33955;DHT22;20233;50.804;7.126;2022-11-25T13:29:00;12.00;99.90
33955;DHT22;20233;50.804;7.126;2022-11-25T13:31:31;12.00;99.90
33955;DHT22;20233;50.804;7.126;2022-11-25T13:36:54;12.10;99.90
33955;DHT22;20233;50.804;7.126;2022-11-25T13:39:33;12.10;99.90
33955;DHT22;20233;50.804;7.126;2022-11-25T13:44:55;12.20;99.90
33955;DHT22;20233;50.804;7.126;2022-11-25T13:47:33;12.30;99.90
33955;DHT22;20233;50.804;7.126;2022-11-25T13:52:47;12.30;99.90
33955;DHT22;20233;50.804;7.126;2022-11-25T13:58:04;12.30;99.90
33955;DHT22;20233;50.804;7.126;2022-11-25T14:23:07;12.40;99.90
33955;DHT22;20233;50.804;7.126;2022-11-25T14:25:47;12.30;99.90
33955;DHT22;20233;50.804;7.126;2022-11-25T14:28:38;12.30;99.90
33955;DHT22;20233;50.804;7.126;2022-11-25T14:31:10;12.30;99.90
33955;DHT22;20233;50.804;7.126;2022-11-25T14:36:12;12.30;99.90
33955;DHT22;20233;50.804;7.126;2022-11-25T14:39:07;12.30;99.90
33955;DHT22;20233;50.804;7.126;2022-11-25T14:41:41;12.20;99.90
33955;DHT22;20233;50.804;7.126;2022-11-25T14:44:19;12.20;99.90
33955;DHT22;20233;50.804;7.126;2022-11-25T14:46:52;12.20;99.90
33955;DHT22;20233;50.804;7.126;2022-11-25T14:49:18;12.30;99.90
33955;DHT22;20233;50.804;7.126;2022-11-25T14:51:46;12.20;99.90
33955;DHT22;20233;50.804;7.126;2022-11-25T14:54:12;12.20;99.90
33955;DHT22;20233;50.804;7.126;2022-11-25T14:56:39;12.20;99.90
33955;DHT22;20233;50.804;7.126;2022-11-25T14:59:07;12.20;99.90
33955;DHT22;20233;50.804;7.126;2022-11-25T15:01:35;12.20;99.90
33955;DHT22;20233;50.804;7.126;2022-11-25T15:04:24;12.20;99.90
33955;DHT22;20233;50.804;7.126;2022-11-25T15:06:55;12.10;99.90
33955;DHT22;20233;50.804;7.126;2022-11-25T15:09:44;12.10;99.90
33955;DHT22;20233;50.804;7.126;2022-11-25T15:12:19;12.10;99.90
33955;DHT22;20233;50.804;7.126;2022-11-25T15:14:51;12.00;99.90
33955;DHT22;20233;50.804;7.126;2022-11-25T15:17:31;11.90;99.90
33955;DHT22;20233;50.804;7.126;2022-11-25T15:20:02;11.90;99.90
33955;DHT22;20233;50.804;7.126;2022-11-25T15:22:28;11.80;99.90
33955;DHT22;20233;50.804;7.126;2022-11-25T15:24:54;11.80;99.90
33955;DHT22;20233;50.804;7.126;2022-11-25T15:27:31;11.70;99.90
33955;DHT22;20233;50.804;7.126;2022-11-25T15:29:56;11.70;99.90
33955;DHT22;20233;50.804;7.126;2022-11-25T15:32:25;11.70;99.90
33955;DHT22;20233;50.804;7.126;2022-11-25T15:34:53;11.70;99.90
33955;DHT22;20233;50.804;7.126;2022-11-25T15:37:19;11.60;99.90
33955;DHT22;20233;50.804;7.126;2022-11-25T15:39:45;11.60;99.90
33955;DHT22;20233;50.804;7.126;2022-11-25T15:42:26;11.60;99.90
33955;DHT22;20233;50.804;7.126;2022-11-25T15:44:58;11.60;99.90
33955;DHT22;20233;50.804;7.126;2022-11-25T15:47:29;11.60;99.90
33955;DHT22;20233;50.804;7.126;2022-11-25T15:52:22;11.50;99.90
33955;DHT22;20233;50.804;7.126;2022-11-25T15:54:49;11.60;99.90
33955;DHT22;20233;50.804;7.126;2022-11-25T15:57:20;11.50;99.90
33955;DHT22;20233;50.804;7.126;2022-11-25T16:00:13;11.50;99.90
33955;DHT22;20233;50.804;7.126;2022-11-25T16:10:30;11.40;99.90
33955;DHT22;20233;50.804;7.126;2022-11-25T16:18:23;11.30;99.90
33955;DHT22;20233;50.804;7.126;2022-11-25T16:20:55;11.20;99.90
33955;DHT22;20233;50.804;7.126;2022-11-25T16:23:22;11.30;99.90
33955;DHT22;20233;50.804;7.126;2022-11-25T16:25:49;11.20;99.90
33955;DHT22;20233;50.804;7.126;2022-11-25T16:28:25;11.10;99.90
33955;DHT22;20233;50.804;7.126;2022-11-25T16:30:51;11.20;99.90
33955;DHT22;20233;50.804;7.126;2022-11-25T16:33:18;11.20;99.90
33955;DHT22;20233;50.804;7.126;2022-11-25T16:35:44;11.20;99.90
33955;DHT22;20233;50.804;7.126;2022-11-25T16:38:10;11.10;99.90
33955;DHT22;20233;50.804;7.126;2022-11-25T16:43:05;11.10;99.90
33955;DHT22;20233;50.804;7.126;2022-11-25T16:45:32;11.10;99.90
33955;DHT22;20233;50.804;7.126;2022-11-25T16:47:58;11.10;99.90
33955;DHT22;20233;50.804;7.126;2022-11-25T16:50:24;11.10;99.90
33955;DHT22;20233;50.804;7.126;2022-11-25T16:52:49;11.10;99.90
33955;DHT22;20233;50.804;7.126;2022-11-25T16:55:15;11.10;99.90
33955;DHT22;20233;50.804;7.126;2022-11-25T16:57:42;11.10;99.90
33955;DHT22;20233;50.804;7.126;2022-11-25T17:00:14;11.20;99.90
33955;DHT22;20233;50.804;7.126;2022-11-25T17:02:41;11.20;99.90
33955;DHT22;20233;50.804;7.126;2022-11-25T17:05:20;11.10;99.90
33955;DHT22;20233;50.804;7.126;2022-11-25T17:07:47;11.20;99.90
33955;DHT22;20233;50.804;7.126;2022-11-25T17:10:14;11.20;99.90
33955;DHT22;20233;50.804;7.126;2022-11-25T17:12:41;11.20;99.90
33955;DHT22;20233;50.804;7.126;2022-11-25T17:15:13;11.10;99.90
33955;DHT22;20233;50.804;7.126;2022-11-25T17:17:40;11.10;99.90
33955;DHT22;20233;50.804;7.126;2022-11-25T17:20:14;11.10;99.90
33955;DHT22;20233;50.804;7.126;2022-11-25T17:22:40;11.00;99.90
33955;DHT22;20233;50.804;7.126;2022-11-25T17:25:06;11.00;99.90
33955;DHT22;20233;50.804;7.126;2022-11-25T17:27:32;11.00;99.90
33955;DHT22;20233;50.804;7.126;2022-11-25T17:30:00;11.00;99.90
33955;DHT22;20233;50.804;7.126;2022-11-25T17:32:28;10.90;99.90
33955;DHT22;20233;50.804;7.126;2022-11-25T17:34:53;10.90;99.90
33955;DHT22;20233;50.804;7.126;2022-11-25T17:37:24;10.90;99.90
33955;DHT22;20233;50.804;7.126;2022-11-25T17:39:53;10.90;99.90
33955;DHT22;20233;50.804;7.126;2022-11-25T17:42:28;10.90;99.90
33955;DHT22;20233;50.804;7.126;2022-11-25T17:44:55;10.90;99.90
33955;DHT22;20233;50.804;7.126;2022-11-25T17:47:20;10.80;99.90
33955;DHT22;20233;50.804;7.126;2022-11-25T17:49:46;10.90;99.90